首页
METAR-TAF:

METAR-TAF

机场 :

三寶顏機場

三宝颜, 菲律宾

纬度: 06-54N, 经度: 122-04E, 海拔: 5米

当前天气观测

该预报发布于1小时和5分钟前的00:00 UTC
静风
温度 28°C
湿度 74%
气压 1011 hPa
能见度10公里或以上
少量云层高于1700英尺
散云层高于9000英尺

METAR: RPMZ 110000Z 00000KT 9999 FEW017 SCT090 28/23 Q1011 RMK A2985

时间: 09:05 (01:05 UTC)

预报

该预报发布于2小时和5分钟前的23:00 UTC
预报有效从11日的 00点(UTC)到 11日的 24点(UTC)
风速6节,风向西
能见度10公里或以上
少量云层高于1700英尺
短暂存在
从 11日的 00点(UTC)到 11日的 06点(UTC)
风速10节,风向
少量云层高于1600英尺, 积雨云.
少量云层高于1700英尺
散云层高于9000英尺

TAF: RPMZ 102300Z 1100/1124 26006KT 9999 FEW017 TEMPO 1100/1106 08010KT FEW016CB FEW017 SCT090

超过4000个机场的气象观测和天气预报(METAR&TAF报告)。

可查询的气象台以黄色和红色小点在地图上表示。

将鼠标移到小点上方,可查看气象台名称。

然后点击查看天气观测和预报。

如需切换地图:点击带黑十字的绿色按钮放大地图;点击带横线的绿色按钮缩小地图;或者点击绿色箭头查看邻近地区的地图。


METAR-TAF: